sensor_id;sensor_type;location;lat;lon;timestamp;temperature;humidity
2579;DHT22;1299;48.282;14.398;2022-12-07T00:01:03;5.20;99.90
2579;DHT22;1299;48.282;14.398;2022-12-07T00:03:32;5.20;99.90
2579;DHT22;1299;48.282;14.398;2022-12-07T00:06:00;5.20;99.90
2579;DHT22;1299;48.282;14.398;2022-12-07T00:08:28;5.30;99.90
2579;DHT22;1299;48.282;14.398;2022-12-07T00:11:01;5.30;99.90
2579;DHT22;1299;48.282;14.398;2022-12-07T00:13:29;5.40;99.90
2579;DHT22;1299;48.282;14.398;2022-12-07T00:15:59;5.30;99.90
2579;DHT22;1299;48.282;14.398;2022-12-07T00:18:27;5.20;99.90
2579;DHT22;1299;48.282;14.398;2022-12-07T00:21:00;5.10;99.90
2579;DHT22;1299;48.282;14.398;2022-12-07T00:23:28;5.20;99.90
2579;DHT22;1299;48.282;14.398;2022-12-07T00:25:55;5.10;99.90
2579;DHT22;1299;48.282;14.398;2022-12-07T00:28:22;5.10;99.90
2579;DHT22;1299;48.282;14.398;2022-12-07T00:30:49;5.10;99.90
2579;DHT22;1299;48.282;14.398;2022-12-07T00:33:17;5.10;99.90
2579;DHT22;1299;48.282;14.398;2022-12-07T00:35:44;5.10;99.90
2579;DHT22;1299;48.282;14.398;2022-12-07T00:38:13;5.10;99.90
2579;DHT22;1299;48.282;14.398;2022-12-07T00:40:40;5.10;99.90
2579;DHT22;1299;48.282;14.398;2022-12-07T00:43:07;5.20;99.90
2579;DHT22;1299;48.282;14.398;2022-12-07T00:45:34;5.30;99.90
2579;DHT22;1299;48.282;14.398;2022-12-07T00:48:02;5.20;99.90
2579;DHT22;1299;48.282;14.398;2022-12-07T00:50:29;5.20;99.90
2579;DHT22;1299;48.282;14.398;2022-12-07T00:52:56;5.20;99.90
2579;DHT22;1299;48.282;14.398;2022-12-07T00:55:25;5.20;99.90
2579;DHT22;1299;48.282;14.398;2022-12-07T00:57:52;5.20;99.90
2579;DHT22;1299;48.282;14.398;2022-12-07T01:00:19;4.90;99.90
2579;DHT22;1299;48.282;14.398;2022-12-07T01:02:47;5.00;99.90
2579;DHT22;1299;48.282;14.398;2022-12-07T01:05:14;5.10;99.90
2579;DHT22;1299;48.282;14.398;2022-12-07T01:07:41;5.20;99.90
2579;DHT22;1299;48.282;14.398;2022-12-07T01:10:09;5.20;99.90
2579;DHT22;1299;48.282;14.398;2022-12-07T01:12:38;5.20;99.90
2579;DHT22;1299;48.282;14.398;2022-12-07T01:15:08;5.30;99.90
2579;DHT22;1299;48.282;14.398;2022-12-07T01:17:35;5.40;99.90
2579;DHT22;1299;48.282;14.398;2022-12-07T01:20:04;5.50;99.90
2579;DHT22;1299;48.282;14.398;2022-12-07T01:22:31;5.50;99.90
2579;DHT22;1299;48.282;14.398;2022-12-07T01:24:58;5.50;99.90
2579;DHT22;1299;48.282;14.398;2022-12-07T01:27:25;5.40;99.90
2579;DHT22;1299;48.282;14.398;2022-12-07T01:29:54;5.40;99.90
2579;DHT22;1299;48.282;14.398;2022-12-07T01:32:21;5.30;99.90
2579;DHT22;1299;48.282;14.398;2022-12-07T01:34:49;5.30;99.90
2579;DHT22;1299;48.282;14.398;2022-12-07T01:37:16;5.20;99.90
2579;DHT22;1299;48.282;14.398;2022-12-07T01:39:43;5.20;99.90
2579;DHT22;1299;48.282;14.398;2022-12-07T01:42:11;5.20;99.90
2579;DHT22;1299;48.282;14.398;2022-12-07T01:48:22;5.10;99.90
2579;DHT22;1299;48.282;14.398;2022-12-07T01:50:52;5.20;99.90
2579;DHT22;1299;48.282;14.398;2022-12-07T01:53:21;5.20;99.90
2579;DHT22;1299;48.282;14.398;2022-12-07T01:55:52;5.30;99.90
2579;DHT22;1299;48.282;14.398;2022-12-07T01:58:20;5.20;99.90
2579;DHT22;1299;48.282;14.398;2022-12-07T02:00:48;5.20;99.90
2579;DHT22;1299;48.282;14.398;2022-12-07T02:03:21;5.20;99.90
2579;DHT22;1299;48.282;14.398;2022-12-07T02:05:50;5.20;99.90
2579;DHT22;1299;48.282;14.398;2022-12-07T02:08:19;5.30;99.90
2579;DHT22;1299;48.282;14.398;2022-12-07T02:10:47;5.30;99.90
2579;DHT22;1299;48.282;14.398;2022-12-07T02:13:16;5.30;99.90
2579;DHT22;1299;48.282;14.398;2022-12-07T02:15:56;5.20;99.90
2579;DHT22;1299;48.282;14.398;2022-12-07T02:18:38;5.30;99.90
2579;DHT22;1299;48.282;14.398;2022-12-07T02:21:11;5.40;99.90
2579;DHT22;1299;48.282;14.398;2022-12-07T02:24:06;5.30;99.90
2579;DHT22;1299;48.282;14.398;2022-12-07T02:27:07;5.40;99.90
2579;DHT22;1299;48.282;14.398;2022-12-07T02:29:41;5.30;99.90
2579;DHT22;1299;48.282;14.398;2022-12-07T02:32:15;5.50;99.90
2579;DHT22;1299;48.282;14.398;2022-12-07T02:34:48;5.40;99.90
2579;DHT22;1299;48.282;14.398;2022-12-07T02:37:25;5.40;99.90
2579;DHT22;1299;48.282;14.398;2022-12-07T02:39:57;5.40;99.90
2579;DHT22;1299;48.282;14.398;2022-12-07T02:42:32;5.40;99.90
2579;DHT22;1299;48.282;14.398;2022-12-07T02:45:03;5.40;99.90
2579;DHT22;1299;48.282;14.398;2022-12-07T02:47:32;5.40;99.90
2579;DHT22;1299;48.282;14.398;2022-12-07T02:50:03;5.50;99.90
2579;DHT22;1299;48.282;14.398;2022-12-07T02:52:30;5.50;99.90
2579;DHT22;1299;48.282;14.398;2022-12-07T02:54:57;5.40;99.90
2579;DHT22;1299;48.282;14.398;2022-12-07T02:57:41;5.40;99.90
2579;DHT22;1299;48.282;14.398;2022-12-07T03:00:16;5.40;99.90
2579;DHT22;1299;48.282;14.398;2022-12-07T03:02:53;5.60;99.90
2579;DHT22;1299;48.282;14.398;2022-12-07T03:05:45;5.50;99.90
2579;DHT22;1299;48.282;14.398;2022-12-07T03:08:23;5.40;99.90
2579;DHT22;1299;48.282;14.398;2022-12-07T03:10:56;5.40;99.90
2579;DHT22;1299;48.282;14.398;2022-12-07T03:13:29;5.60;99.90
2579;DHT22;1299;48.282;14.398;2022-12-07T03:16:04;5.30;99.90
2579;DHT22;1299;48.282;14.398;2022-12-07T03:18:36;5.20;99.90
2579;DHT22;1299;48.282;14.398;2022-12-07T03:21:08;5.20;99.90
2579;DHT22;1299;48.282;14.398;2022-12-07T03:23:38;5.30;99.90
2579;DHT22;1299;48.282;14.398;2022-12-07T03:26:10;5.40;99.90
2579;DHT22;1299;48.282;14.398;2022-12-07T03:28:42;5.40;99.90
2579;DHT22;1299;48.282;14.398;2022-12-07T03:31:16;5.50;99.90
2579;DHT22;1299;48.282;14.398;2022-12-07T03:33:51;5.40;99.90
2579;DHT22;1299;48.282;14.398;2022-12-07T03:36:23;5.40;99.90
2579;DHT22;1299;48.282;14.398;2022-12-07T03:38:55;5.30;99.90
2579;DHT22;1299;48.282;14.398;2022-12-07T03:41:27;5.40;99.90
2579;DHT22;1299;48.282;14.398;2022-12-07T03:43:56;5.50;99.90
2579;DHT22;1299;48.282;14.398;2022-12-07T03:46:32;5.40;99.90
2579;DHT22;1299;48.282;14.398;2022-12-07T03:49:08;5.40;99.90
2579;DHT22;1299;48.282;14.398;2022-12-07T03:51:42;5.50;99.90
2579;DHT22;1299;48.282;14.398;2022-12-07T03:54:15;5.50;99.90
2579;DHT22;1299;48.282;14.398;2022-12-07T03:56:46;5.40;99.90
2579;DHT22;1299;48.282;14.398;2022-12-07T03:59:15;5.20;99.90
2579;DHT22;1299;48.282;14.398;2022-12-07T04:01:45;5.30;99.90
2579;DHT22;1299;48.282;14.398;2022-12-07T04:04:18;5.30;99.90
2579;DHT22;1299;48.282;14.398;2022-12-07T04:06:45;5.40;99.90
2579;DHT22;1299;48.282;14.398;2022-12-07T04:09:12;5.40;99.90
2579;DHT22;1299;48.282;14.398;2022-12-07T04:11:40;5.30;99.90
2579;DHT22;1299;48.282;14.398;2022-12-07T04:14:08;5.30;99.90
2579;DHT22;1299;48.282;14.398;2022-12-07T04:16:51;5.30;99.90
2579;DHT22;1299;48.282;14.398;2022-12-07T04:19:20;5.30;99.90
2579;DHT22;1299;48.282;14.398;2022-12-07T04:21:48;5.30;99.90
2579;DHT22;1299;48.282;14.398;2022-12-07T04:24:15;5.40;99.90
2579;DHT22;1299;48.282;14.398;2022-12-07T04:26:43;5.50;99.90
2579;DHT22;1299;48.282;14.398;2022-12-07T04:29:11;5.30;99.90
2579;DHT22;1299;48.282;14.398;2022-12-07T04:31:39;5.20;99.90
2579;DHT22;1299;48.282;14.398;2022-12-07T04:34:07;5.30;99.90
2579;DHT22;1299;48.282;14.398;2022-12-07T04:36:35;5.30;99.90
2579;DHT22;1299;48.282;14.398;2022-12-07T04:39:03;5.40;99.90
2579;DHT22;1299;48.282;14.398;2022-12-07T04:41:31;5.50;99.90
2579;DHT22;1299;48.282;14.398;2022-12-07T04:44:00;5.50;99.90
2579;DHT22;1299;48.282;14.398;2022-12-07T04:46:30;5.40;99.90
2579;DHT22;1299;48.282;14.398;2022-12-07T04:48:58;5.30;99.90
2579;DHT22;1299;48.282;14.398;2022-12-07T04:51:28;5.30;99.90
2579;DHT22;1299;48.282;14.398;2022-12-07T04:53:56;5.40;99.90
2579;DHT22;1299;48.282;14.398;2022-12-07T04:56:24;5.30;99.90
2579;DHT22;1299;48.282;14.398;2022-12-07T04:58:53;5.20;99.90
2579;DHT22;1299;48.282;14.398;2022-12-07T05:01:22;5.30;99.90
2579;DHT22;1299;48.282;14.398;2022-12-07T05:03:49;5.10;99.90
2579;DHT22;1299;48.282;14.398;2022-12-07T05:06:17;5.10;99.90
2579;DHT22;1299;48.282;14.398;2022-12-07T05:08:46;5.10;99.90
2579;DHT22;1299;48.282;14.398;2022-12-07T05:11:13;5.00;99.90
2579;DHT22;1299;48.282;14.398;2022-12-07T05:14:01;5.00;99.90
2579;DHT22;1299;48.282;14.398;2022-12-07T05:16:29;4.90;99.90
2579;DHT22;1299;48.282;14.398;2022-12-07T05:18:57;4.90;99.90
2579;DHT22;1299;48.282;14.398;2022-12-07T05:21:25;5.00;99.90
2579;DHT22;1299;48.282;14.398;2022-12-07T05:23:53;5.00;99.90
2579;DHT22;1299;48.282;14.398;2022-12-07T05:26:21;4.90;99.90
2579;DHT22;1299;48.282;14.398;2022-12-07T05:28:51;5.10;99.90
2579;DHT22;1299;48.282;14.398;2022-12-07T05:31:18;5.10;99.90
2579;DHT22;1299;48.282;14.398;2022-12-07T05:33:46;5.00;99.90
2579;DHT22;1299;48.282;14.398;2022-12-07T05:36:13;5.00;99.90
2579;DHT22;1299;48.282;14.398;2022-12-07T05:38:40;5.00;99.90
2579;DHT22;1299;48.282;14.398;2022-12-07T05:41:12;5.10;99.90
2579;DHT22;1299;48.282;14.398;2022-12-07T05:43:55;5.30;99.90
2579;DHT22;1299;48.282;14.398;2022-12-07T05:46:22;5.10;99.90
2579;DHT22;1299;48.282;14.398;2022-12-07T05:48:49;5.00;99.90
2579;DHT22;1299;48.282;14.398;2022-12-07T05:51:16;5.10;99.90
2579;DHT22;1299;48.282;14.398;2022-12-07T05:53:44;4.90;99.90
2579;DHT22;1299;48.282;14.398;2022-12-07T05:56:13;5.20;99.90
2579;DHT22;1299;48.282;14.398;2022-12-07T05:58:40;5.20;99.90
2579;DHT22;1299;48.282;14.398;2022-12-07T06:01:24;5.20;99.90
2579;DHT22;1299;48.282;14.398;2022-12-07T06:03:52;5.20;99.90
2579;DHT22;1299;48.282;14.398;2022-12-07T06:06:19;5.00;99.90
2579;DHT22;1299;48.282;14.398;2022-12-07T06:08:46;5.20;99.90
2579;DHT22;1299;48.282;14.398;2022-12-07T06:11:15;5.20;99.90
2579;DHT22;1299;48.282;14.398;2022-12-07T06:14:00;4.80;99.90
2579;DHT22;1299;48.282;14.398;2022-12-07T06:16:27;5.00;99.90
2579;DHT22;1299;48.282;14.398;2022-12-07T06:18:54;5.00;99.90
2579;DHT22;1299;48.282;14.398;2022-12-07T06:21:21;4.80;99.90
2579;DHT22;1299;48.282;14.398;2022-12-07T06:23:48;4.80;99.90
2579;DHT22;1299;48.282;14.398;2022-12-07T06:26:17;4.70;99.90
2579;DHT22;1299;48.282;14.398;2022-12-07T06:28:44;4.70;99.90
2579;DHT22;1299;48.282;14.398;2022-12-07T06:31:11;4.70;99.90
2579;DHT22;1299;48.282;14.398;2022-12-07T06:33:39;4.80;99.90
2579;DHT22;1299;48.282;14.398;2022-12-07T06:36:06;4.70;99.90
2579;DHT22;1299;48.282;14.398;2022-12-07T06:38:34;4.70;99.90
2579;DHT22;1299;48.282;14.398;2022-12-07T06:41:01;4.80;99.90
2579;DHT22;1299;48.282;14.398;2022-12-07T06:43:30;4.80;99.90
2579;DHT22;1299;48.282;14.398;2022-12-07T06:45:57;4.80;99.90
2579;DHT22;1299;48.282;14.398;2022-12-07T06:48:24;4.80;99.90
2579;DHT22;1299;48.282;14.398;2022-12-07T06:50:51;4.80;99.90
2579;DHT22;1299;48.282;14.398;2022-12-07T06:53:19;4.80;99.90
2579;DHT22;1299;48.282;14.398;2022-12-07T06:55:46;4.80;99.90
2579;DHT22;1299;48.282;14.398;2022-12-07T06:58:13;5.00;99.90
2579;DHT22;1299;48.282;14.398;2022-12-07T07:00:42;5.00;99.90
2579;DHT22;1299;48.282;14.398;2022-12-07T07:03:10;5.00;99.90
2579;DHT22;1299;48.282;14.398;2022-12-07T07:05:37;5.00;99.90
2579;DHT22;1299;48.282;14.398;2022-12-07T07:08:04;5.00;99.90
2579;DHT22;1299;48.282;14.398;2022-12-07T07:10:31;5.00;99.90
2579;DHT22;1299;48.282;14.398;2022-12-07T07:12:58;5.00;99.90
2579;DHT22;1299;48.282;14.398;2022-12-07T07:18:03;5.00;99.90
2579;DHT22;1299;48.282;14.398;2022-12-07T07:20:30;4.80;99.90
2579;DHT22;1299;48.282;14.398;2022-12-07T07:22:57;4.80;99.90
2579;DHT22;1299;48.282;14.398;2022-12-07T07:25:24;4.80;99.90
2579;DHT22;1299;48.282;14.398;2022-12-07T07:27:51;4.90;99.90
2579;DHT22;1299;48.282;14.398;2022-12-07T07:30:19;4.90;99.90
2579;DHT22;1299;48.282;14.398;2022-12-07T07:32:46;4.80;99.90
2579;DHT22;1299;48.282;14.398;2022-12-07T07:35:15;4.90;99.90
2579;DHT22;1299;48.282;14.398;2022-12-07T07:37:42;5.00;99.90
2579;DHT22;1299;48.282;14.398;2022-12-07T07:40:10;4.90;99.90
2579;DHT22;1299;48.282;14.398;2022-12-07T07:42:38;5.00;99.90
2579;DHT22;1299;48.282;14.398;2022-12-07T07:45:06;5.00;99.90
2579;DHT22;1299;48.282;14.398;2022-12-07T07:47:33;4.90;99.90
2579;DHT22;1299;48.282;14.398;2022-12-07T07:50:01;4.90;99.90
2579;DHT22;1299;48.282;14.398;2022-12-07T07:52:30;4.90;99.90
2579;DHT22;1299;48.282;14.398;2022-12-07T07:54:58;5.00;99.90
2579;DHT22;1299;48.282;14.398;2022-12-07T07:57:25;4.90;99.90
2579;DHT22;1299;48.282;14.398;2022-12-07T07:59:53;5.00;99.90
2579;DHT22;1299;48.282;14.398;2022-12-07T08:02:21;4.90;99.90
2579;DHT22;1299;48.282;14.398;2022-12-07T08:04:48;4.90;99.90
2579;DHT22;1299;48.282;14.398;2022-12-07T08:07:16;4.90;99.90
2579;DHT22;1299;48.282;14.398;2022-12-07T08:09:44;4.90;99.90
2579;DHT22;1299;48.282;14.398;2022-12-07T08:12:11;4.90;99.90
2579;DHT22;1299;48.282;14.398;2022-12-07T08:14:39;4.80;99.90
2579;DHT22;1299;48.282;14.398;2022-12-07T08:17:07;4.90;99.90
2579;DHT22;1299;48.282;14.398;2022-12-07T08:19:34;5.00;99.90
2579;DHT22;1299;48.282;14.398;2022-12-07T08:22:01;4.90;99.90
2579;DHT22;1299;48.282;14.398;2022-12-07T08:24:29;4.80;99.90
2579;DHT22;1299;48.282;14.398;2022-12-07T08:26:57;5.00;99.90
2579;DHT22;1299;48.282;14.398;2022-12-07T08:29:24;5.00;99.90
2579;DHT22;1299;48.282;14.398;2022-12-07T08:31:52;5.20;99.90
2579;DHT22;1299;48.282;14.398;2022-12-07T08:34:19;5.30;99.90
2579;DHT22;1299;48.282;14.398;2022-12-07T08:36:46;5.10;99.90
2579;DHT22;1299;48.282;14.398;2022-12-07T08:39:13;5.30;99.90
2579;DHT22;1299;48.282;14.398;2022-12-07T08:41:40;5.40;99.90
2579;DHT22;1299;48.282;14.398;2022-12-07T08:44:09;5.40;99.90
2579;DHT22;1299;48.282;14.398;2022-12-07T08:46:38;5.50;99.90
2579;DHT22;1299;48.282;14.398;2022-12-07T08:49:09;5.60;99.90
2579;DHT22;1299;48.282;14.398;2022-12-07T08:51:39;5.60;99.90
2579;DHT22;1299;48.282;14.398;2022-12-07T08:54:09;5.70;99.90
2579;DHT22;1299;48.282;14.398;2022-12-07T08:56:38;5.70;99.90
2579;DHT22;1299;48.282;14.398;2022-12-07T08:59:06;5.90;99.90
2579;DHT22;1299;48.282;14.398;2022-12-07T09:01:35;5.80;99.90
2579;DHT22;1299;48.282;14.398;2022-12-07T09:04:02;5.90;99.90
2579;DHT22;1299;48.282;14.398;2022-12-07T09:06:29;5.90;99.90
2579;DHT22;1299;48.282;14.398;2022-12-07T09:08:58;5.90;99.90
2579;DHT22;1299;48.282;14.398;2022-12-07T09:11:27;6.10;99.90
2579;DHT22;1299;48.282;14.398;2022-12-07T09:13:55;6.50;99.90
2579;DHT22;1299;48.282;14.398;2022-12-07T09:16:22;6.40;99.90
2579;DHT22;1299;48.282;14.398;2022-12-07T09:18:50;6.20;99.90
2579;DHT22;1299;48.282;14.398;2022-12-07T09:21:18;6.10;99.90
2579;DHT22;1299;48.282;14.398;2022-12-07T09:23:45;6.20;99.90
2579;DHT22;1299;48.282;14.398;2022-12-07T09:26:12;6.30;99.90
2579;DHT22;1299;48.282;14.398;2022-12-07T09:28:39;6.30;99.90
2579;DHT22;1299;48.282;14.398;2022-12-07T09:31:07;6.10;99.90
2579;DHT22;1299;48.282;14.398;2022-12-07T09:33:34;6.20;99.90
2579;DHT22;1299;48.282;14.398;2022-12-07T09:36:04;6.30;99.90
2579;DHT22;1299;48.282;14.398;2022-12-07T09:38:32;6.40;99.90
2579;DHT22;1299;48.282;14.398;2022-12-07T09:41:04;6.40;99.90
2579;DHT22;1299;48.282;14.398;2022-12-07T09:43:34;6.50;99.90
2579;DHT22;1299;48.282;14.398;2022-12-07T09:46:02;6.50;99.90
2579;DHT22;1299;48.282;14.398;2022-12-07T09:48:32;6.30;99.90
2579;DHT22;1299;48.282;14.398;2022-12-07T09:51:02;6.50;99.90
2579;DHT22;1299;48.282;14.398;2022-12-07T09:53:33;6.30;99.90
2579;DHT22;1299;48.282;14.398;2022-12-07T09:56:00;6.40;99.90
2579;DHT22;1299;48.282;14.398;2022-12-07T09:58:29;6.30;99.90
2579;DHT22;1299;48.282;14.398;2022-12-07T10:01:00;6.20;99.90
2579;DHT22;1299;48.282;14.398;2022-12-07T10:03:28;6.20;99.90
2579;DHT22;1299;48.282;14.398;2022-12-07T10:05:55;6.40;99.90
2579;DHT22;1299;48.282;14.398;2022-12-07T10:08:26;6.40;99.90
2579;DHT22;1299;48.282;14.398;2022-12-07T10:10:55;6.30;99.90
2579;DHT22;1299;48.282;14.398;2022-12-07T10:13:33;6.30;99.90
2579;DHT22;1299;48.282;14.398;2022-12-07T10:16:01;6.40;99.90
2579;DHT22;1299;48.282;14.398;2022-12-07T10:18:31;6.50;99.90
2579;DHT22;1299;48.282;14.398;2022-12-07T10:21:05;6.70;99.90
2579;DHT22;1299;48.282;14.398;2022-12-07T10:23:37;6.50;99.90
2579;DHT22;1299;48.282;14.398;2022-12-07T10:26:21;6.50;99.90
2579;DHT22;1299;48.282;14.398;2022-12-07T10:28:53;6.50;99.90
2579;DHT22;1299;48.282;14.398;2022-12-07T10:31:22;6.70;99.90
2579;DHT22;1299;48.282;14.398;2022-12-07T10:33:52;6.60;99.90
2579;DHT22;1299;48.282;14.398;2022-12-07T10:36:23;6.60;99.90
2579;DHT22;1299;48.282;14.398;2022-12-07T10:38:53;6.70;99.90
2579;DHT22;1299;48.282;14.398;2022-12-07T10:41:25;6.80;99.90
2579;DHT22;1299;48.282;14.398;2022-12-07T10:43:54;6.90;99.90
2579;DHT22;1299;48.282;14.398;2022-12-07T10:46:47;6.70;99.90
2579;DHT22;1299;48.282;14.398;2022-12-07T10:52:18;6.50;99.90
2579;DHT22;1299;48.282;14.398;2022-12-07T10:55:00;6.60;99.90
2579;DHT22;1299;48.282;14.398;2022-12-07T10:57:39;6.40;99.90
2579;DHT22;1299;48.282;14.398;2022-12-07T11:00:19;6.50;99.90
2579;DHT22;1299;48.282;14.398;2022-12-07T11:05:48;6.50;99.90
2579;DHT22;1299;48.282;14.398;2022-12-07T11:08:25;6.70;99.90
2579;DHT22;1299;48.282;14.398;2022-12-07T11:11:06;7.00;99.90
2579;DHT22;1299;48.282;14.398;2022-12-07T11:13:43;7.20;99.90
2579;DHT22;1299;48.282;14.398;2022-12-07T11:16:27;7.30;99.90
2579;DHT22;1299;48.282;14.398;2022-12-07T11:19:11;7.60;99.90
2579;DHT22;1299;48.282;14.398;2022-12-07T11:21:46;7.40;99.90
2579;DHT22;1299;48.282;14.398;2022-12-07T11:24:17;7.40;99.90
2579;DHT22;1299;48.282;14.398;2022-12-07T11:27:01;7.70;99.90
2579;DHT22;1299;48.282;14.398;2022-12-07T11:29:44;7.90;99.90
2579;DHT22;1299;48.282;14.398;2022-12-07T11:32:17;8.20;99.90
2579;DHT22;1299;48.282;14.398;2022-12-07T11:34:57;8.50;99.90
2579;DHT22;1299;48.282;14.398;2022-12-07T11:37:31;8.60;99.90
2579;DHT22;1299;48.282;14.398;2022-12-07T11:40:02;8.60;99.90
2579;DHT22;1299;48.282;14.398;2022-12-07T11:42:36;8.40;99.90
2579;DHT22;1299;48.282;14.398;2022-12-07T11:45:14;8.50;99.90
2579;DHT22;1299;48.282;14.398;2022-12-07T11:47:47;8.80;99.90
2579;DHT22;1299;48.282;14.398;2022-12-07T11:50:25;8.50;99.90
2579;DHT22;1299;48.282;14.398;2022-12-07T11:52:57;8.00;99.90
2579;DHT22;1299;48.282;14.398;2022-12-07T11:55:29;7.90;99.90
2579;DHT22;1299;48.282;14.398;2022-12-07T11:58:04;7.60;99.90
2579;DHT22;1299;48.282;14.398;2022-12-07T12:00:33;7.50;99.90
2579;DHT22;1299;48.282;14.398;2022-12-07T12:03:05;7.50;99.90
2579;DHT22;1299;48.282;14.398;2022-12-07T12:05:39;7.80;99.90
2579;DHT22;1299;48.282;14.398;2022-12-07T12:08:14;7.90;99.90
2579;DHT22;1299;48.282;14.398;2022-12-07T12:10:54;7.90;99.90
2579;DHT22;1299;48.282;14.398;2022-12-07T12:14:00;7.70;99.90
2579;DHT22;1299;48.282;14.398;2022-12-07T12:16:44;7.50;99.90
2579;DHT22;1299;48.282;14.398;2022-12-07T12:19:23;7.40;99.90
2579;DHT22;1299;48.282;14.398;2022-12-07T12:21:56;7.50;99.90
2579;DHT22;1299;48.282;14.398;2022-12-07T12:24:27;7.50;99.90
2579;DHT22;1299;48.282;14.398;2022-12-07T12:27:01;7.50;99.90
2579;DHT22;1299;48.282;14.398;2022-12-07T12:29:34;7.60;99.90
2579;DHT22;1299;48.282;14.398;2022-12-07T12:32:13;7.40;99.90
2579;DHT22;1299;48.282;14.398;2022-12-07T12:34:58;7.60;99.90
2579;DHT22;1299;48.282;14.398;2022-12-07T12:37:45;8.10;99.90
2579;DHT22;1299;48.282;14.398;2022-12-07T12:40:38;8.30;99.90
2579;DHT22;1299;48.282;14.398;2022-12-07T12:46:51;8.00;99.90
2579;DHT22;1299;48.282;14.398;2022-12-07T12:49:34;7.90;99.90
2579;DHT22;1299;48.282;14.398;2022-12-07T12:55:13;7.70;99.90
2579;DHT22;1299;48.282;14.398;2022-12-07T12:57:44;7.30;99.90
2579;DHT22;1299;48.282;14.398;2022-12-07T13:00:18;7.30;99.90
2579;DHT22;1299;48.282;14.398;2022-12-07T13:02:52;7.20;99.90
2579;DHT22;1299;48.282;14.398;2022-12-07T13:05:22;7.30;99.90
2579;DHT22;1299;48.282;14.398;2022-12-07T13:08:00;7.30;99.90
2579;DHT22;1299;48.282;14.398;2022-12-07T13:10:38;7.20;99.90
2579;DHT22;1299;48.282;14.398;2022-12-07T13:13:31;7.10;99.90
2579;DHT22;1299;48.282;14.398;2022-12-07T13:19:01;7.10;99.90
2579;DHT22;1299;48.282;14.398;2022-12-07T13:21:44;7.20;99.90
2579;DHT22;1299;48.282;14.398;2022-12-07T13:24:12;7.30;99.90
2579;DHT22;1299;48.282;14.398;2022-12-07T13:26:42;7.40;99.90
2579;DHT22;1299;48.282;14.398;2022-12-07T13:29:13;7.30;99.90
2579;DHT22;1299;48.282;14.398;2022-12-07T13:31:42;7.30;99.90
2579;DHT22;1299;48.282;14.398;2022-12-07T13:34:32;7.20;99.90
2579;DHT22;1299;48.282;14.398;2022-12-07T13:37:01;7.10;99.90
2579;DHT22;1299;48.282;14.398;2022-12-07T13:39:29;7.20;99.90
2579;DHT22;1299;48.282;14.398;2022-12-07T13:41:57;7.00;99.90
2579;DHT22;1299;48.282;14.398;2022-12-07T13:44:28;7.10;99.90
2579;DHT22;1299;48.282;14.398;2022-12-07T13:47:02;7.10;99.90
2579;DHT22;1299;48.282;14.398;2022-12-07T13:49:37;6.80;99.90
2579;DHT22;1299;48.282;14.398;2022-12-07T13:52:15;6.60;99.90
2579;DHT22;1299;48.282;14.398;2022-12-07T13:54:47;6.70;99.90
2579;DHT22;1299;48.282;14.398;2022-12-07T13:57:16;6.70;99.90
2579;DHT22;1299;48.282;14.398;2022-12-07T13:59:43;6.60;99.90
2579;DHT22;1299;48.282;14.398;2022-12-07T14:02:19;6.70;99.90
2579;DHT22;1299;48.282;14.398;2022-12-07T14:04:50;6.70;99.90
2579;DHT22;1299;48.282;14.398;2022-12-07T14:07:23;6.70;99.90
2579;DHT22;1299;48.282;14.398;2022-12-07T14:09:59;6.60;99.90
2579;DHT22;1299;48.282;14.398;2022-12-07T14:12:28;6.60;99.90
2579;DHT22;1299;48.282;14.398;2022-12-07T14:14:56;6.50;99.90
2579;DHT22;1299;48.282;14.398;2022-12-07T14:17:26;6.60;99.90
2579;DHT22;1299;48.282;14.398;2022-12-07T14:19:56;6.40;99.90
2579;DHT22;1299;48.282;14.398;2022-12-07T14:22:31;6.40;99.90
2579;DHT22;1299;48.282;14.398;2022-12-07T14:25:17;6.40;99.90
2579;DHT22;1299;48.282;14.398;2022-12-07T14:27:59;6.40;99.90
2579;DHT22;1299;48.282;14.398;2022-12-07T14:30:28;6.30;99.90
2579;DHT22;1299;48.282;14.398;2022-12-07T14:32:59;6.30;99.90
2579;DHT22;1299;48.282;14.398;2022-12-07T14:35:30;6.10;99.90
2579;DHT22;1299;48.282;14.398;2022-12-07T14:37:58;6.10;99.90
2579;DHT22;1299;48.282;14.398;2022-12-07T14:40:26;6.20;99.90
2579;DHT22;1299;48.282;14.398;2022-12-07T14:42:57;6.30;99.90
2579;DHT22;1299;48.282;14.398;2022-12-07T14:45:25;6.20;99.90
2579;DHT22;1299;48.282;14.398;2022-12-07T14:47:52;6.10;99.90
2579;DHT22;1299;48.282;14.398;2022-12-07T14:50:20;6.20;99.90
2579;DHT22;1299;48.282;14.398;2022-12-07T14:52:51;6.30;99.90
2579;DHT22;1299;48.282;14.398;2022-12-07T14:55:23;6.50;99.90
2579;DHT22;1299;48.282;14.398;2022-12-07T14:57:51;6.60;99.90
2579;DHT22;1299;48.282;14.398;2022-12-07T15:00:20;6.40;99.90
2579;DHT22;1299;48.282;14.398;2022-12-07T15:02:48;6.40;99.90
2579;DHT22;1299;48.282;14.398;2022-12-07T15:05:16;6.30;99.90
2579;DHT22;1299;48.282;14.398;2022-12-07T15:07:44;6.20;99.90
2579;DHT22;1299;48.282;14.398;2022-12-07T15:10:16;6.20;99.90
2579;DHT22;1299;48.282;14.398;2022-12-07T15:12:45;6.20;99.90
2579;DHT22;1299;48.282;14.398;2022-12-07T15:15:12;6.10;99.90
2579;DHT22;1299;48.282;14.398;2022-12-07T15:17:40;6.10;99.90
2579;DHT22;1299;48.282;14.398;2022-12-07T15:20:11;6.00;99.90
2579;DHT22;1299;48.282;14.398;2022-12-07T15:22:39;6.00;99.90
2579;DHT22;1299;48.282;14.398;2022-12-07T15:25:07;5.90;99.90
2579;DHT22;1299;48.282;14.398;2022-12-07T15:27:36;5.80;99.90
2579;DHT22;1299;48.282;14.398;2022-12-07T15:30:05;5.80;99.90
2579;DHT22;1299;48.282;14.398;2022-12-07T15:32:32;5.80;99.90
2579;DHT22;1299;48.282;14.398;2022-12-07T15:34:59;5.80;99.90
2579;DHT22;1299;48.282;14.398;2022-12-07T15:37:26;5.80;99.90
2579;DHT22;1299;48.282;14.398;2022-12-07T15:39:54;5.80;99.90
2579;DHT22;1299;48.282;14.398;2022-12-07T15:42:21;5.80;99.90
2579;DHT22;1299;48.282;14.398;2022-12-07T15:44:50;5.80;99.90
2579;DHT22;1299;48.282;14.398;2022-12-07T15:47:31;5.80;99.90
2579;DHT22;1299;48.282;14.398;2022-12-07T15:49:59;5.70;99.90
2579;DHT22;1299;48.282;14.398;2022-12-07T15:52:26;5.60;99.90
2579;DHT22;1299;48.282;14.398;2022-12-07T15:54:54;5.50;99.90
2579;DHT22;1299;48.282;14.398;2022-12-07T15:57:21;5.40;99.90
2579;DHT22;1299;48.282;14.398;2022-12-07T15:59:49;5.50;99.90
2579;DHT22;1299;48.282;14.398;2022-12-07T16:02:17;5.30;99.90
2579;DHT22;1299;48.282;14.398;2022-12-07T16:04:44;5.30;99.90
2579;DHT22;1299;48.282;14.398;2022-12-07T16:07:12;5.20;99.90
2579;DHT22;1299;48.282;14.398;2022-12-07T16:09:41;5.10;99.90
2579;DHT22;1299;48.282;14.398;2022-12-07T16:12:08;5.20;99.90
2579;DHT22;1299;48.282;14.398;2022-12-07T16:14:36;5.10;99.90
2579;DHT22;1299;48.282;14.398;2022-12-07T16:17:05;5.10;99.90
2579;DHT22;1299;48.282;14.398;2022-12-07T16:19:33;5.00;99.90
2579;DHT22;1299;48.282;14.398;2022-12-07T16:22:01;5.00;99.90
2579;DHT22;1299;48.282;14.398;2022-12-07T16:24:29;4.90;99.90
2579;DHT22;1299;48.282;14.398;2022-12-07T16:26:56;4.90;99.90
2579;DHT22;1299;48.282;14.398;2022-12-07T16:29:23;4.80;99.90
2579;DHT22;1299;48.282;14.398;2022-12-07T16:31:51;4.80;99.90
2579;DHT22;1299;48.282;14.398;2022-12-07T16:34:20;4.80;99.90
2579;DHT22;1299;48.282;14.398;2022-12-07T16:36:47;4.80;99.90
2579;DHT22;1299;48.282;14.398;2022-12-07T16:39:15;4.80;99.90
2579;DHT22;1299;48.282;14.398;2022-12-07T16:41:44;4.80;99.90
2579;DHT22;1299;48.282;14.398;2022-12-07T16:44:12;4.80;99.90
2579;DHT22;1299;48.282;14.398;2022-12-07T16:46:40;4.80;99.90